sensor_id;sensor_type;location;lat;lon;timestamp;P1;durP1;ratioP1;P2;durP2;ratioP2
79135;SDS011;68533;51.090;17.216;2023-12-20T00:01:57;2.05;;;1.25;;
79135;SDS011;68533;51.090;17.216;2023-12-20T00:05:21;0.40;;;0.40;;
79135;SDS011;68533;51.090;17.216;2023-12-20T00:08:46;0.68;;;0.68;;
79135;SDS011;68533;51.090;17.216;2023-12-20T00:15:35;2.30;;;0.60;;
79135;SDS011;68533;51.090;17.216;2023-12-20T00:19:00;2.00;;;1.90;;
79135;SDS011;68533;51.090;17.216;2023-12-20T00:22:24;2.72;;;1.27;;
79135;SDS011;68533;51.090;17.216;2023-12-20T00:25:51;2.35;;;1.60;;
79135;SDS011;68533;51.090;17.216;2023-12-20T00:29:15;0.88;;;0.60;;
79135;SDS011;68533;51.090;17.216;2023-12-20T00:32:40;2.53;;;1.05;;
79135;SDS011;68533;51.090;17.216;2023-12-20T00:36:05;0.85;;;0.68;;
79135;SDS011;68533;51.090;17.216;2023-12-20T00:39:30;2.15;;;1.30;;
79135;SDS011;68533;51.090;17.216;2023-12-20T00:42:54;1.08;;;0.70;;
79135;SDS011;68533;51.090;17.216;2023-12-20T00:46:19;1.15;;;0.88;;
79135;SDS011;68533;51.090;17.216;2023-12-20T00:49:44;6.63;;;1.75;;
79135;SDS011;68533;51.090;17.216;2023-12-20T00:53:09;3.13;;;1.48;;
79135;SDS011;68533;51.090;17.216;2023-12-20T00:56:35;2.75;;;1.05;;
79135;SDS011;68533;51.090;17.216;2023-12-20T00:59:59;5.13;;;2.08;;
79135;SDS011;68533;51.090;17.216;2023-12-20T01:03:25;3.50;;;1.58;;
79135;SDS011;68533;51.090;17.216;2023-12-20T01:06:50;2.30;;;0.68;;
79135;SDS011;68533;51.090;17.216;2023-12-20T01:13:41;0.95;;;0.82;;
79135;SDS011;68533;51.090;17.216;2023-12-20T01:17:06;1.35;;;1.00;;
79135;SDS011;68533;51.090;17.216;2023-12-20T01:20:30;0.93;;;0.68;;
79135;SDS011;68533;51.090;17.216;2023-12-20T01:23:55;2.10;;;1.13;;
79135;SDS011;68533;51.090;17.216;2023-12-20T01:27:20;2.85;;;1.85;;
79135;SDS011;68533;51.090;17.216;2023-12-20T01:30:45;1.50;;;1.05;;
79135;SDS011;68533;51.090;17.216;2023-12-20T01:34:11;1.52;;;1.10;;
79135;SDS011;68533;51.090;17.216;2023-12-20T01:37:38;1.42;;;0.73;;
79135;SDS011;68533;51.090;17.216;2023-12-20T01:41:10;2.70;;;2.47;;
79135;SDS011;68533;51.090;17.216;2023-12-20T01:44:40;1.92;;;1.27;;
79135;SDS011;68533;51.090;17.216;2023-12-20T01:48:05;6.03;;;0.90;;
79135;SDS011;68533;51.090;17.216;2023-12-20T01:51:42;2.65;;;1.15;;
79135;SDS011;68533;51.090;17.216;2023-12-20T01:55:09;2.78;;;1.73;;
79135;SDS011;68533;51.090;17.216;2023-12-20T01:58:34;3.70;;;1.23;;
79135;SDS011;68533;51.090;17.216;2023-12-20T02:02:03;3.00;;;1.67;;
79135;SDS011;68533;51.090;17.216;2023-12-20T02:05:29;0.77;;;0.77;;
79135;SDS011;68533;51.090;17.216;2023-12-20T02:08:57;1.23;;;0.85;;
79135;SDS011;68533;51.090;17.216;2023-12-20T02:12:21;3.95;;;1.65;;
79135;SDS011;68533;51.090;17.216;2023-12-20T02:19:13;0.70;;;0.70;;
79135;SDS011;68533;51.090;17.216;2023-12-20T02:22:38;2.47;;;1.27;;
79135;SDS011;68533;51.090;17.216;2023-12-20T02:26:02;1.52;;;0.90;;
79135;SDS011;68533;51.090;17.216;2023-12-20T02:29:31;1.35;;;1.25;;
79135;SDS011;68533;51.090;17.216;2023-12-20T02:32:56;0.80;;;0.60;;
79135;SDS011;68533;51.090;17.216;2023-12-20T02:36:20;2.08;;;0.75;;
79135;SDS011;68533;51.090;17.216;2023-12-20T02:39:45;0.70;;;0.70;;
79135;SDS011;68533;51.090;17.216;2023-12-20T02:43:09;1.75;;;1.35;;
79135;SDS011;68533;51.090;17.216;2023-12-20T02:46:34;2.35;;;1.20;;
79135;SDS011;68533;51.090;17.216;2023-12-20T02:53:22;1.10;;;0.77;;
79135;SDS011;68533;51.090;17.216;2023-12-20T02:56:47;4.72;;;1.23;;
79135;SDS011;68533;51.090;17.216;2023-12-20T03:03:45;1.38;;;0.40;;
79135;SDS011;68533;51.090;17.216;2023-12-20T03:10:35;1.08;;;0.77;;
79135;SDS011;68533;51.090;17.216;2023-12-20T03:14:00;1.05;;;0.40;;
79135;SDS011;68533;51.090;17.216;2023-12-20T03:17:25;0.10;;;0.10;;
79135;SDS011;68533;51.090;17.216;2023-12-20T03:20:49;0.60;;;0.30;;
79135;SDS011;68533;51.090;17.216;2023-12-20T03:24:14;0.93;;;0.70;;
79135;SDS011;68533;51.090;17.216;2023-12-20T03:27:43;0.32;;;0.17;;
79135;SDS011;68533;51.090;17.216;2023-12-20T03:31:09;0.28;;;0.17;;
79135;SDS011;68533;51.090;17.216;2023-12-20T03:34:34;0.85;;;0.50;;
79135;SDS011;68533;51.090;17.216;2023-12-20T03:37:58;1.08;;;0.13;;
79135;SDS011;68533;51.090;17.216;2023-12-20T03:41:28;0.73;;;0.52;;
79135;SDS011;68533;51.090;17.216;2023-12-20T03:44:53;0.03;;;0.03;;
79135;SDS011;68533;51.090;17.216;2023-12-20T03:48:19;1.25;;;0.30;;
79135;SDS011;68533;51.090;17.216;2023-12-20T03:51:44;0.00;;;0.00;;
79135;SDS011;68533;51.090;17.216;2023-12-20T03:58:33;0.00;;;0.00;;
79135;SDS011;68533;51.090;17.216;2023-12-20T04:02:02;0.50;;;0.20;;
79135;SDS011;68533;51.090;17.216;2023-12-20T04:05:27;0.22;;;0.00;;
79135;SDS011;68533;51.090;17.216;2023-12-20T04:08:51;0.20;;;0.20;;
79135;SDS011;68533;51.090;17.216;2023-12-20T04:12:16;0.20;;;0.20;;
79135;SDS011;68533;51.090;17.216;2023-12-20T04:15:41;0.20;;;0.20;;
79135;SDS011;68533;51.090;17.216;2023-12-20T04:22:30;0.00;;;0.00;;
79135;SDS011;68533;51.090;17.216;2023-12-20T04:25:55;0.55;;;0.10;;
79135;SDS011;68533;51.090;17.216;2023-12-20T04:29:19;0.00;;;0.00;;
79135;SDS011;68533;51.090;17.216;2023-12-20T04:32:45;0.00;;;0.00;;
79135;SDS011;68533;51.090;17.216;2023-12-20T04:36:09;0.65;;;0.52;;
79135;SDS011;68533;51.090;17.216;2023-12-20T04:39:35;0.00;;;0.00;;
79135;SDS011;68533;51.090;17.216;2023-12-20T04:43:00;0.40;;;0.40;;
79135;SDS011;68533;51.090;17.216;2023-12-20T04:46:36;0.15;;;0.10;;
79135;SDS011;68533;51.090;17.216;2023-12-20T04:50:03;0.20;;;0.20;;
79135;SDS011;68533;51.090;17.216;2023-12-20T04:53:28;0.10;;;0.10;;
79135;SDS011;68533;51.090;17.216;2023-12-20T04:56:54;0.00;;;0.00;;
79135;SDS011;68533;51.090;17.216;2023-12-20T05:00:19;0.00;;;0.00;;
79135;SDS011;68533;51.090;17.216;2023-12-20T05:03:44;0.10;;;0.10;;
79135;SDS011;68533;51.090;17.216;2023-12-20T05:10:33;0.20;;;0.20;;
79135;SDS011;68533;51.090;17.216;2023-12-20T05:14:01;0.00;;;0.00;;
79135;SDS011;68533;51.090;17.216;2023-12-20T05:17:25;0.10;;;0.10;;
79135;SDS011;68533;51.090;17.216;2023-12-20T05:20:50;0.00;;;0.00;;
79135;SDS011;68533;51.090;17.216;2023-12-20T05:24:18;0.10;;;0.10;;
79135;SDS011;68533;51.090;17.216;2023-12-20T05:31:07;0.00;;;0.00;;
79135;SDS011;68533;51.090;17.216;2023-12-20T05:34:34;0.00;;;0.00;;
79135;SDS011;68533;51.090;17.216;2023-12-20T05:37:59;0.08;;;0.08;;
79135;SDS011;68533;51.090;17.216;2023-12-20T05:41:25;0.03;;;0.03;;
79135;SDS011;68533;51.090;17.216;2023-12-20T05:44:52;0.00;;;0.00;;
79135;SDS011;68533;51.090;17.216;2023-12-20T05:48:17;0.15;;;0.15;;
79135;SDS011;68533;51.090;17.216;2023-12-20T05:51:41;0.10;;;0.10;;
79135;SDS011;68533;51.090;17.216;2023-12-20T05:55:06;0.00;;;0.00;;
79135;SDS011;68533;51.090;17.216;2023-12-20T05:58:32;0.00;;;0.00;;
79135;SDS011;68533;51.090;17.216;2023-12-20T06:01:56;0.20;;;0.10;;
79135;SDS011;68533;51.090;17.216;2023-12-20T06:08:46;0.05;;;0.05;;
79135;SDS011;68533;51.090;17.216;2023-12-20T06:12:10;0.20;;;0.20;;
79135;SDS011;68533;51.090;17.216;2023-12-20T06:15:36;0.10;;;0.10;;
79135;SDS011;68533;51.090;17.216;2023-12-20T06:19:03;0.00;;;0.00;;
79135;SDS011;68533;51.090;17.216;2023-12-20T06:22:34;0.17;;;0.15;;
79135;SDS011;68533;51.090;17.216;2023-12-20T06:25:58;0.15;;;0.10;;
79135;SDS011;68533;51.090;17.216;2023-12-20T06:29:31;0.47;;;0.32;;
79135;SDS011;68533;51.090;17.216;2023-12-20T06:32:59;2.15;;;0.80;;
79135;SDS011;68533;51.090;17.216;2023-12-20T06:36:25;0.10;;;0.10;;
79135;SDS011;68533;51.090;17.216;2023-12-20T06:39:53;0.73;;;0.28;;
79135;SDS011;68533;51.090;17.216;2023-12-20T06:43:17;0.00;;;0.00;;
79135;SDS011;68533;51.090;17.216;2023-12-20T06:50:06;0.00;;;0.00;;
79135;SDS011;68533;51.090;17.216;2023-12-20T06:53:33;0.45;;;0.45;;
79135;SDS011;68533;51.090;17.216;2023-12-20T06:57:02;0.10;;;0.10;;
79135;SDS011;68533;51.090;17.216;2023-12-20T07:00:30;0.05;;;0.03;;
79135;SDS011;68533;51.090;17.216;2023-12-20T07:03:55;0.00;;;0.00;;
79135;SDS011;68533;51.090;17.216;2023-12-20T07:07:22;0.52;;;0.20;;
79135;SDS011;68533;51.090;17.216;2023-12-20T07:10:47;0.15;;;0.10;;
79135;SDS011;68533;51.090;17.216;2023-12-20T07:14:11;0.00;;;0.00;;
79135;SDS011;68533;51.090;17.216;2023-12-20T07:17:39;0.20;;;0.20;;
79135;SDS011;68533;51.090;17.216;2023-12-20T07:21:27;0.20;;;0.20;;
79135;SDS011;68533;51.090;17.216;2023-12-20T07:24:51;0.20;;;0.20;;
79135;SDS011;68533;51.090;17.216;2023-12-20T07:28:16;0.08;;;0.08;;
79135;SDS011;68533;51.090;17.216;2023-12-20T07:35:05;0.00;;;0.00;;
79135;SDS011;68533;51.090;17.216;2023-12-20T07:38:30;0.20;;;0.20;;
79135;SDS011;68533;51.090;17.216;2023-12-20T07:41:58;0.03;;;0.03;;
79135;SDS011;68533;51.090;17.216;2023-12-20T07:45:23;0.03;;;0.03;;
79135;SDS011;68533;51.090;17.216;2023-12-20T07:48:51;0.63;;;0.63;;
79135;SDS011;68533;51.090;17.216;2023-12-20T07:52:19;0.20;;;0.20;;
79135;SDS011;68533;51.090;17.216;2023-12-20T07:55:46;0.08;;;0.00;;
79135;SDS011;68533;51.090;17.216;2023-12-20T07:59:11;0.32;;;0.20;;
79135;SDS011;68533;51.090;17.216;2023-12-20T08:02:37;0.20;;;0.20;;
79135;SDS011;68533;51.090;17.216;2023-12-20T08:06:01;0.28;;;0.10;;
79135;SDS011;68533;51.090;17.216;2023-12-20T08:09:26;0.10;;;0.10;;
79135;SDS011;68533;51.090;17.216;2023-12-20T08:12:51;0.10;;;0.10;;
79135;SDS011;68533;51.090;17.216;2023-12-20T08:16:16;0.08;;;0.08;;
79135;SDS011;68533;51.090;17.216;2023-12-20T08:19:41;0.70;;;0.17;;
79135;SDS011;68533;51.090;17.216;2023-12-20T08:26:31;0.10;;;0.10;;
79135;SDS011;68533;51.090;17.216;2023-12-20T08:29:57;0.30;;;0.28;;
79135;SDS011;68533;51.090;17.216;2023-12-20T08:33:22;1.05;;;0.15;;
79135;SDS011;68533;51.090;17.216;2023-12-20T08:36:46;0.03;;;0.03;;
79135;SDS011;68533;51.090;17.216;2023-12-20T08:43:43;0.05;;;0.05;;
79135;SDS011;68533;51.090;17.216;2023-12-20T08:47:09;1.35;;;0.10;;
79135;SDS011;68533;51.090;17.216;2023-12-20T08:50:36;0.00;;;0.00;;
79135;SDS011;68533;51.090;17.216;2023-12-20T08:57:25;0.03;;;0.03;;
79135;SDS011;68533;51.090;17.216;2023-12-20T09:00:50;0.22;;;0.22;;
79135;SDS011;68533;51.090;17.216;2023-12-20T09:04:21;0.50;;;0.40;;
79135;SDS011;68533;51.090;17.216;2023-12-20T09:07:47;0.00;;;0.00;;
79135;SDS011;68533;51.090;17.216;2023-12-20T09:11:11;0.08;;;0.08;;
79135;SDS011;68533;51.090;17.216;2023-12-20T09:18:01;0.15;;;0.13;;
79135;SDS011;68533;51.090;17.216;2023-12-20T09:21:27;0.08;;;0.08;;
79135;SDS011;68533;51.090;17.216;2023-12-20T09:24:53;1.30;;;0.32;;
79135;SDS011;68533;51.090;17.216;2023-12-20T09:28:20;0.00;;;0.00;;
79135;SDS011;68533;51.090;17.216;2023-12-20T09:31:46;0.10;;;0.10;;
79135;SDS011;68533;51.090;17.216;2023-12-20T09:35:10;0.25;;;0.22;;
79135;SDS011;68533;51.090;17.216;2023-12-20T09:42:00;0.00;;;0.00;;
79135;SDS011;68533;51.090;17.216;2023-12-20T09:45:36;0.00;;;0.00;;
79135;SDS011;68533;51.090;17.216;2023-12-20T09:49:04;0.03;;;0.03;;
79135;SDS011;68533;51.090;17.216;2023-12-20T09:52:30;0.20;;;0.20;;
79135;SDS011;68533;51.090;17.216;2023-12-20T09:56:00;0.00;;;0.00;;
79135;SDS011;68533;51.090;17.216;2023-12-20T09:59:26;0.15;;;0.05;;
79135;SDS011;68533;51.090;17.216;2023-12-20T10:02:59;0.73;;;0.73;;
79135;SDS011;68533;51.090;17.216;2023-12-20T10:06:26;0.10;;;0.10;;
79135;SDS011;68533;51.090;17.216;2023-12-20T10:09:51;0.43;;;0.43;;
79135;SDS011;68533;51.090;17.216;2023-12-20T10:13:19;0.68;;;0.68;;
79135;SDS011;68533;51.090;17.216;2023-12-20T10:16:50;0.28;;;0.08;;
79135;SDS011;68533;51.090;17.216;2023-12-20T10:20:15;1.00;;;0.55;;
79135;SDS011;68533;51.090;17.216;2023-12-20T10:23:40;0.30;;;0.30;;
79135;SDS011;68533;51.090;17.216;2023-12-20T10:27:07;0.63;;;0.63;;
79135;SDS011;68533;51.090;17.216;2023-12-20T10:30:48;0.10;;;0.10;;
79135;SDS011;68533;51.090;17.216;2023-12-20T10:34:25;1.30;;;0.75;;
79135;SDS011;68533;51.090;17.216;2023-12-20T10:37:56;0.00;;;0.00;;
79135;SDS011;68533;51.090;17.216;2023-12-20T10:41:30;0.28;;;0.28;;
79135;SDS011;68533;51.090;17.216;2023-12-20T10:44:56;0.00;;;0.00;;
79135;SDS011;68533;51.090;17.216;2023-12-20T10:48:21;1.17;;;0.20;;
79135;SDS011;68533;51.090;17.216;2023-12-20T10:51:46;0.30;;;0.20;;
79135;SDS011;68533;51.090;17.216;2023-12-20T10:55:15;0.40;;;0.13;;
79135;SDS011;68533;51.090;17.216;2023-12-20T10:58:42;0.45;;;0.40;;
79135;SDS011;68533;51.090;17.216;2023-12-20T11:02:09;0.15;;;0.15;;
79135;SDS011;68533;51.090;17.216;2023-12-20T11:05:39;0.10;;;0.10;;
79135;SDS011;68533;51.090;17.216;2023-12-20T11:09:26;0.30;;;0.30;;
79135;SDS011;68533;51.090;17.216;2023-12-20T11:13:23;1.55;;;0.65;;
79135;SDS011;68533;51.090;17.216;2023-12-20T11:17:12;0.70;;;0.60;;
79135;SDS011;68533;51.090;17.216;2023-12-20T11:20:40;3.35;;;0.13;;
79135;SDS011;68533;51.090;17.216;2023-12-20T11:24:05;8.82;;;0.65;;
79135;SDS011;68533;51.090;17.216;2023-12-20T11:27:36;0.85;;;0.50;;
79135;SDS011;68533;51.090;17.216;2023-12-20T11:31:01;0.35;;;0.35;;
79135;SDS011;68533;51.090;17.216;2023-12-20T11:34:34;0.25;;;0.25;;
79135;SDS011;68533;51.090;17.216;2023-12-20T11:38:02;0.08;;;0.08;;
79135;SDS011;68533;51.090;17.216;2023-12-20T11:41:36;0.20;;;0.20;;
79135;SDS011;68533;51.090;17.216;2023-12-20T11:45:08;1.48;;;0.10;;
79135;SDS011;68533;51.090;17.216;2023-12-20T11:48:36;0.60;;;0.20;;
79135;SDS011;68533;51.090;17.216;2023-12-20T11:52:04;0.93;;;0.10;;
79135;SDS011;68533;51.090;17.216;2023-12-20T11:55:29;0.10;;;0.10;;
79135;SDS011;68533;51.090;17.216;2023-12-20T11:58:54;0.30;;;0.30;;
79135;SDS011;68533;51.090;17.216;2023-12-20T12:02:20;0.10;;;0.10;;
79135;SDS011;68533;51.090;17.216;2023-12-20T12:05:46;0.38;;;0.38;;
79135;SDS011;68533;51.090;17.216;2023-12-20T12:09:12;0.00;;;0.00;;
79135;SDS011;68533;51.090;17.216;2023-12-20T12:12:36;0.95;;;0.50;;
79135;SDS011;68533;51.090;17.216;2023-12-20T12:16:01;0.20;;;0.03;;
79135;SDS011;68533;51.090;17.216;2023-12-20T12:19:26;1.17;;;0.30;;
79135;SDS011;68533;51.090;17.216;2023-12-20T12:23:03;0.55;;;0.55;;
79135;SDS011;68533;51.090;17.216;2023-12-20T12:26:34;0.80;;;0.80;;
79135;SDS011;68533;51.090;17.216;2023-12-20T12:33:24;0.20;;;0.20;;
79135;SDS011;68533;51.090;17.216;2023-12-20T12:36:49;0.73;;;0.52;;
79135;SDS011;68533;51.090;17.216;2023-12-20T12:40:14;0.00;;;0.00;;
79135;SDS011;68533;51.090;17.216;2023-12-20T12:43:45;0.52;;;0.30;;
79135;SDS011;68533;51.090;17.216;2023-12-20T12:47:09;0.65;;;0.20;;
79135;SDS011;68533;51.090;17.216;2023-12-20T12:50:35;2.33;;;0.08;;
79135;SDS011;68533;51.090;17.216;2023-12-20T12:54:00;0.25;;;0.25;;
79135;SDS011;68533;51.090;17.216;2023-12-20T12:57:25;0.17;;;0.17;;
79135;SDS011;68533;51.090;17.216;2023-12-20T13:00:51;0.30;;;0.10;;
79135;SDS011;68533;51.090;17.216;2023-12-20T13:04:16;0.05;;;0.05;;
79135;SDS011;68533;51.090;17.216;2023-12-20T13:07:43;0.47;;;0.13;;
79135;SDS011;68533;51.090;17.216;2023-12-20T13:11:08;0.30;;;0.30;;
79135;SDS011;68533;51.090;17.216;2023-12-20T13:17:58;0.30;;;0.30;;
79135;SDS011;68533;51.090;17.216;2023-12-20T13:21:25;0.10;;;0.10;;
79135;SDS011;68533;51.090;17.216;2023-12-20T13:24:50;0.25;;;0.08;;
79135;SDS011;68533;51.090;17.216;2023-12-20T13:28:16;0.28;;;0.28;;
79135;SDS011;68533;51.090;17.216;2023-12-20T13:31:44;0.15;;;0.10;;
79135;SDS011;68533;51.090;17.216;2023-12-20T13:35:09;1.30;;;0.28;;
79135;SDS011;68533;51.090;17.216;2023-12-20T13:38:34;0.17;;;0.17;;
79135;SDS011;68533;51.090;17.216;2023-12-20T13:41:59;0.00;;;0.00;;
79135;SDS011;68533;51.090;17.216;2023-12-20T13:45:23;0.20;;;0.20;;
79135;SDS011;68533;51.090;17.216;2023-12-20T13:48:50;1.65;;;0.10;;
79135;SDS011;68533;51.090;17.216;2023-12-20T13:52:14;0.08;;;0.08;;
79135;SDS011;68533;51.090;17.216;2023-12-20T13:55:42;2.63;;;1.08;;
79135;SDS011;68533;51.090;17.216;2023-12-20T13:59:07;0.50;;;0.50;;
79135;SDS011;68533;51.090;17.216;2023-12-20T14:02:44;0.30;;;0.20;;
79135;SDS011;68533;51.090;17.216;2023-12-20T14:06:09;7.03;;;0.30;;
79135;SDS011;68533;51.090;17.216;2023-12-20T14:09:34;0.30;;;0.30;;
79135;SDS011;68533;51.090;17.216;2023-12-20T14:12:59;0.00;;;0.00;;
79135;SDS011;68533;51.090;17.216;2023-12-20T14:16:27;0.10;;;0.10;;
79135;SDS011;68533;51.090;17.216;2023-12-20T14:19:53;0.20;;;0.10;;
79135;SDS011;68533;51.090;17.216;2023-12-20T14:23:19;0.10;;;0.10;;
79135;SDS011;68533;51.090;17.216;2023-12-20T14:26:46;1.25;;;0.13;;
79135;SDS011;68533;51.090;17.216;2023-12-20T14:33:35;0.10;;;0.10;;
79135;SDS011;68533;51.090;17.216;2023-12-20T14:37:00;0.20;;;0.20;;
79135;SDS011;68533;51.090;17.216;2023-12-20T14:40:31;0.20;;;0.20;;
79135;SDS011;68533;51.090;17.216;2023-12-20T14:43:58;0.63;;;0.28;;
79135;SDS011;68533;51.090;17.216;2023-12-20T14:47:23;0.38;;;0.35;;
79135;SDS011;68533;51.090;17.216;2023-12-20T14:50:48;0.95;;;0.80;;
79135;SDS011;68533;51.090;17.216;2023-12-20T14:57:37;0.20;;;0.20;;
79135;SDS011;68533;51.090;17.216;2023-12-20T15:01:03;0.10;;;0.10;;
79135;SDS011;68533;51.090;17.216;2023-12-20T15:04:32;0.35;;;0.32;;
79135;SDS011;68533;51.090;17.216;2023-12-20T15:07:57;0.50;;;0.22;;
79135;SDS011;68533;51.090;17.216;2023-12-20T15:11:22;0.17;;;0.17;;
79135;SDS011;68533;51.090;17.216;2023-12-20T15:14:46;0.30;;;0.30;;
79135;SDS011;68533;51.090;17.216;2023-12-20T15:18:13;0.05;;;0.05;;
79135;SDS011;68533;51.090;17.216;2023-12-20T15:21:37;0.08;;;0.05;;
79135;SDS011;68533;51.090;17.216;2023-12-20T15:25:03;1.75;;;0.50;;
79135;SDS011;68533;51.090;17.216;2023-12-20T15:28:29;0.77;;;0.40;;
79135;SDS011;68533;51.090;17.216;2023-12-20T15:31:54;0.63;;;0.63;;
79135;SDS011;68533;51.090;17.216;2023-12-20T15:35:21;0.38;;;0.20;;
79135;SDS011;68533;51.090;17.216;2023-12-20T15:38:49;0.10;;;0.10;;
79135;SDS011;68533;51.090;17.216;2023-12-20T15:42:15;0.95;;;0.63;;
79135;SDS011;68533;51.090;17.216;2023-12-20T15:45:40;0.50;;;0.38;;
79135;SDS011;68533;51.090;17.216;2023-12-20T15:49:05;0.98;;;0.82;;
79135;SDS011;68533;51.090;17.216;2023-12-20T15:52:32;1.85;;;1.10;;
79135;SDS011;68533;51.090;17.216;2023-12-20T15:55:56;0.50;;;0.30;;
79135;SDS011;68533;51.090;17.216;2023-12-20T15:59:21;0.10;;;0.10;;
79135;SDS011;68533;51.090;17.216;2023-12-20T16:02:46;0.30;;;0.30;;
79135;SDS011;68533;51.090;17.216;2023-12-20T16:06:10;2.05;;;0.93;;
79135;SDS011;68533;51.090;17.216;2023-12-20T16:09:38;1.50;;;0.82;;
79135;SDS011;68533;51.090;17.216;2023-12-20T16:16:27;0.32;;;0.28;;
79135;SDS011;68533;51.090;17.216;2023-12-20T16:23:16;0.35;;;0.25;;
79135;SDS011;68533;51.090;17.216;2023-12-20T16:26:41;9.93;;;0.85;;
79135;SDS011;68533;51.090;17.216;2023-12-20T16:33:30;0.45;;;0.30;;
79135;SDS011;68533;51.090;17.216;2023-12-20T16:37:00;0.85;;;0.85;;
79135;SDS011;68533;51.090;17.216;2023-12-20T16:40:25;0.55;;;0.38;;
79135;SDS011;68533;51.090;17.216;2023-12-20T16:43:49;0.25;;;0.25;;
79135;SDS011;68533;51.090;17.216;2023-12-20T16:50:38;0.28;;;0.28;;
79135;SDS011;68533;51.090;17.216;2023-12-20T16:57:29;0.13;;;0.13;;
79135;SDS011;68533;51.090;17.216;2023-12-20T17:00:54;0.40;;;0.40;;
79135;SDS011;68533;51.090;17.216;2023-12-20T17:04:19;1.10;;;0.57;;
79135;SDS011;68533;51.090;17.216;2023-12-20T17:07:44;0.93;;;0.20;;
79135;SDS011;68533;51.090;17.216;2023-12-20T17:11:09;0.25;;;0.25;;
79135;SDS011;68533;51.090;17.216;2023-12-20T17:14:41;3.50;;;0.32;;
79135;SDS011;68533;51.090;17.216;2023-12-20T17:18:08;0.55;;;0.55;;
79135;SDS011;68533;51.090;17.216;2023-12-20T17:24:57;1.20;;;1.10;;
79135;SDS011;68533;51.090;17.216;2023-12-20T17:31:46;0.70;;;0.70;;
79135;SDS011;68533;51.090;17.216;2023-12-20T17:35:15;3.50;;;0.75;;
79135;SDS011;68533;51.090;17.216;2023-12-20T17:38:42;0.88;;;0.88;;
79135;SDS011;68533;51.090;17.216;2023-12-20T17:42:09;1.50;;;0.70;;
79135;SDS011;68533;51.090;17.216;2023-12-20T17:45:37;1.90;;;0.32;;
79135;SDS011;68533;51.090;17.216;2023-12-20T17:49:02;1.58;;;1.38;;
79135;SDS011;68533;51.090;17.216;2023-12-20T17:52:26;0.20;;;0.20;;
79135;SDS011;68533;51.090;17.216;2023-12-20T17:55:51;1.95;;;0.82;;
79135;SDS011;68533;51.090;17.216;2023-12-20T17:59:15;0.35;;;0.28;;
79135;SDS011;68533;51.090;17.216;2023-12-20T18:02:54;0.20;;;0.10;;
79135;SDS011;68533;51.090;17.216;2023-12-20T18:06:18;0.52;;;0.35;;
79135;SDS011;68533;51.090;17.216;2023-12-20T18:09:48;0.30;;;0.30;;
79135;SDS011;68533;51.090;17.216;2023-12-20T18:13:16;0.00;;;0.00;;
79135;SDS011;68533;51.090;17.216;2023-12-20T18:16:41;0.50;;;0.30;;
79135;SDS011;68533;51.090;17.216;2023-12-20T18:20:09;0.10;;;0.10;;
79135;SDS011;68533;51.090;17.216;2023-12-20T18:23:33;0.35;;;0.30;;
79135;SDS011;68533;51.090;17.216;2023-12-20T18:27:00;0.30;;;0.30;;
79135;SDS011;68533;51.090;17.216;2023-12-20T18:30:25;0.10;;;0.10;;
79135;SDS011;68533;51.090;17.216;2023-12-20T18:33:52;0.10;;;0.00;;
79135;SDS011;68533;51.090;17.216;2023-12-20T18:37:17;0.10;;;0.00;;
79135;SDS011;68533;51.090;17.216;2023-12-20T18:40:42;0.10;;;0.03;;
79135;SDS011;68533;51.090;17.216;2023-12-20T18:44:15;0.00;;;0.00;;
79135;SDS011;68533;51.090;17.216;2023-12-20T18:51:06;0.08;;;0.03;;
79135;SDS011;68533;51.090;17.216;2023-12-20T18:54:33;0.10;;;0.10;;
79135;SDS011;68533;51.090;17.216;2023-12-20T19:01:22;0.20;;;0.00;;
79135;SDS011;68533;51.090;17.216;2023-12-20T19:04:48;1.08;;;0.38;;
79135;SDS011;68533;51.090;17.216;2023-12-20T19:08:14;0.52;;;0.52;;
79135;SDS011;68533;51.090;17.216;2023-12-20T19:11:39;0.20;;;0.20;;
79135;SDS011;68533;51.090;17.216;2023-12-20T19:15:04;0.17;;;0.17;;
79135;SDS011;68533;51.090;17.216;2023-12-20T19:18:30;0.20;;;0.20;;
79135;SDS011;68533;51.090;17.216;2023-12-20T19:21:55;0.15;;;0.13;;
79135;SDS011;68533;51.090;17.216;2023-12-20T19:25:19;0.00;;;0.00;;
79135;SDS011;68533;51.090;17.216;2023-12-20T19:32:08;0.68;;;0.68;;
79135;SDS011;68533;51.090;17.216;2023-12-20T19:35:34;0.15;;;0.15;;
79135;SDS011;68533;51.090;17.216;2023-12-20T19:38:59;1.40;;;1.02;;
79135;SDS011;68533;51.090;17.216;2023-12-20T19:42:27;0.00;;;0.00;;
79135;SDS011;68533;51.090;17.216;2023-12-20T19:45:51;0.45;;;0.35;;
79135;SDS011;68533;51.090;17.216;2023-12-20T19:49:22;0.10;;;0.10;;
79135;SDS011;68533;51.090;17.216;2023-12-20T19:53:02;1.58;;;0.40;;
79135;SDS011;68533;51.090;17.216;2023-12-20T19:56:29;0.00;;;0.00;;
79135;SDS011;68533;51.090;17.216;2023-12-20T19:59:54;0.30;;;0.17;;
79135;SDS011;68533;51.090;17.216;2023-12-20T20:03:20;0.00;;;0.00;;
79135;SDS011;68533;51.090;17.216;2023-12-20T20:06:50;0.15;;;0.10;;
79135;SDS011;68533;51.090;17.216;2023-12-20T20:10:15;0.63;;;0.15;;
79135;SDS011;68533;51.090;17.216;2023-12-20T20:13:40;0.10;;;0.10;;
79135;SDS011;68533;51.090;17.216;2023-12-20T20:17:06;0.00;;;0.00;;
79135;SDS011;68533;51.090;17.216;2023-12-20T20:20:32;0.00;;;0.00;;
79135;SDS011;68533;51.090;17.216;2023-12-20T20:23:58;0.75;;;0.30;;
79135;SDS011;68533;51.090;17.216;2023-12-20T20:27:22;3.53;;;0.52;;
79135;SDS011;68533;51.090;17.216;2023-12-20T20:30:48;1.13;;;0.20;;
79135;SDS011;68533;51.090;17.216;2023-12-20T20:34:13;0.00;;;0.00;;
79135;SDS011;68533;51.090;17.216;2023-12-20T20:41:02;1.33;;;0.60;;
79135;SDS011;68533;51.090;17.216;2023-12-20T20:44:27;0.60;;;0.60;;
79135;SDS011;68533;51.090;17.216;2023-12-20T20:47:54;0.30;;;0.30;;
79135;SDS011;68533;51.090;17.216;2023-12-20T20:51:19;0.17;;;0.10;;
79135;SDS011;68533;51.090;17.216;2023-12-20T20:54:43;0.17;;;0.17;;
79135;SDS011;68533;51.090;17.216;2023-12-20T20:58:10;0.10;;;0.10;;
79135;SDS011;68533;51.090;17.216;2023-12-20T21:01:35;0.03;;;0.03;;
79135;SDS011;68533;51.090;17.216;2023-12-20T21:08:24;0.00;;;0.00;;
79135;SDS011;68533;51.090;17.216;2023-12-20T21:11:51;0.55;;;0.30;;
79135;SDS011;68533;51.090;17.216;2023-12-20T21:15:16;0.20;;;0.10;;
79135;SDS011;68533;51.090;17.216;2023-12-20T21:18:41;0.08;;;0.00;;
79135;SDS011;68533;51.090;17.216;2023-12-20T21:25:34;0.20;;;0.20;;
79135;SDS011;68533;51.090;17.216;2023-12-20T21:32:24;0.00;;;0.00;;
79135;SDS011;68533;51.090;17.216;2023-12-20T21:35:48;0.22;;;0.20;;
79135;SDS011;68533;51.090;17.216;2023-12-20T21:39:14;0.20;;;0.20;;
79135;SDS011;68533;51.090;17.216;2023-12-20T21:42:38;0.17;;;0.17;;
79135;SDS011;68533;51.090;17.216;2023-12-20T21:46:03;1.98;;;0.63;;
79135;SDS011;68533;51.090;17.216;2023-12-20T21:49:37;0.80;;;0.57;;
79135;SDS011;68533;51.090;17.216;2023-12-20T21:53:26;0.10;;;0.10;;
79135;SDS011;68533;51.090;17.216;2023-12-20T21:57:03;0.90;;;0.35;;
79135;SDS011;68533;51.090;17.216;2023-12-20T22:00:27;0.03;;;0.03;;
79135;SDS011;68533;51.090;17.216;2023-12-20T22:03:53;0.80;;;0.65;;
79135;SDS011;68533;51.090;17.216;2023-12-20T22:07:17;0.70;;;0.30;;
79135;SDS011;68533;51.090;17.216;2023-12-20T22:10:43;0.00;;;0.00;;
79135;SDS011;68533;51.090;17.216;2023-12-20T22:14:08;0.40;;;0.25;;
79135;SDS011;68533;51.090;17.216;2023-12-20T22:17:44;3.03;;;0.40;;
79135;SDS011;68533;51.090;17.216;2023-12-20T22:21:47;3.08;;;0.77;;
79135;SDS011;68533;51.090;17.216;2023-12-20T22:25:30;0.85;;;0.43;;
79135;SDS011;68533;51.090;17.216;2023-12-20T22:28:56;0.38;;;0.38;;